Time;durP1;ratioP1;P1;durP2;ratioP2;P2;SDS_P1;SDS_P2;PMS_P1;PMS_P2;Temp;Humidity;BMP_temperature;BMP_pressure;BME280_temperature;BME280_humidity;BME280_pressure;Samples;Min_cycle;Max_cycle;Signal;HPM_P1;HPM_P2
2023/05/27 00:00:14;;;;;;;7.32;3.80;;;18.90;74.00;;;;;;5057485;28;20070;-64
2023/05/27 00:02:40;;;;;;;7.82;4.10;;;18.90;74.10;;;;;;5057514;28;20043;-62
2023/05/27 00:05:07;;;;;;;6.18;4.05;;;18.90;74.20;;;;;;5057326;28;20104;-62
2023/05/27 00:07:32;;;;;;;7.47;4.00;;;18.80;74.10;;;;;;5057092;28;20350;-66
2023/05/27 00:09:58;;;;;;;7.93;3.92;;;18.70;74.10;;;;;;5057145;28;20032;-66
2023/05/27 00:12:30;;;;;;;6.65;3.70;;;18.70;74.30;;;;;;5056509;28;20056;-66
2023/05/27 00:14:56;;;;;;;7.97;3.95;;;18.60;74.20;;;;;;5056972;28;20025;-66
2023/05/27 00:17:22;;;;;;;6.60;3.85;;;18.60;74.30;;;;;;5057251;28;20421;-64
2023/05/27 00:19:48;;;;;;;8.40;4.00;;;18.60;74.30;;;;;;5056874;28;20021;-62
2023/05/27 00:22:15;;;;;;;8.52;3.97;;;18.50;74.30;;;;;;5056830;28;20473;-66
2023/05/27 00:24:41;;;;;;;5.93;3.38;;;18.50;74.20;;;;;;5057074;28;20112;-66
2023/05/27 00:27:08;;;;;;;6.60;4.03;;;18.50;74.10;;;;;;5055667;28;20433;-62
2023/05/27 00:29:35;;;;;;;6.43;3.67;;;18.40;74.10;;;;;;5056768;28;20044;-62
2023/05/27 00:32:02;;;;;;;6.05;3.72;;;18.50;74.10;;;;;;5056620;28;20033;-65
2023/05/27 00:34:29;;;;;;;5.43;3.70;;;18.50;74.00;;;;;;5056671;28;20017;-65
2023/05/27 00:36:56;;;;;;;6.85;3.72;;;18.50;74.00;;;;;;5056755;28;20104;-62
2023/05/27 00:39:22;;;;;;;5.72;3.67;;;18.50;73.70;;;;;;5056815;28;20078;-65
2023/05/27 00:41:50;;;;;;;7.50;4.05;;;18.50;74.20;;;;;;5056424;28;20443;-62
2023/05/27 00:44:17;;;;;;;5.55;4.15;;;18.50;73.90;;;;;;5056692;28;20304;-63
2023/05/27 00:46:47;;;;;;;5.60;3.88;;;18.50;74.10;;;;;;5056295;28;20089;-63
2023/05/27 00:49:13;;;;;;;7.32;4.32;;;18.50;74.00;;;;;;5056315;28;20020;-62
2023/05/27 00:51:39;;;;;;;8.27;4.38;;;18.50;74.10;;;;;;5056333;28;20437;-63
2023/05/27 00:54:07;;;;;;;7.10;4.63;;;18.50;73.90;;;;;;5056572;28;20040;-64
2023/05/27 00:56:34;;;;;;;10.52;4.68;;;18.50;73.90;;;;;;5056206;28;20039;-66
2023/05/27 00:59:00;;;;;;;9.77;5.35;;;18.40;74.00;;;;;;5056149;28;20025;-66
2023/05/27 01:01:26;;;;;;;7.28;4.40;;;18.40;74.20;;;;;;5055523;28;20029;-62
2023/05/27 01:03:53;;;;;;;9.20;4.90;;;18.40;74.50;;;;;;5056281;28;20025;-63
2023/05/27 01:06:31;;;;;;;7.32;4.95;;;18.40;74.70;;;;;;5056035;28;20021;-65
2023/05/27 01:09:09;;;;;;;7.97;4.47;;;18.40;74.60;;;;;;5056148;28;20029;-66
2023/05/27 01:11:44;;;;;;;7.43;4.53;;;18.50;74.50;;;;;;5056169;28;20033;-63
2023/05/27 01:14:14;;;;;;;8.20;4.47;;;18.50;74.70;;;;;;5055277;28;20074;-65
2023/05/27 01:16:46;;;;;;;7.97;4.43;;;18.50;74.80;;;;;;5055996;28;20029;-66
2023/05/27 01:19:26;;;;;;;6.93;4.35;;;18.50;74.70;;;;;;5056320;28;20434;-62
2023/05/27 01:21:54;;;;;;;7.93;4.78;;;18.50;74.70;;;;;;5056010;28;20048;-66
2023/05/27 01:24:20;;;;;;;7.30;4.50;;;18.50;74.90;;;;;;5054889;28;20485;-65
2023/05/27 01:26:46;;;;;;;6.57;4.38;;;18.60;74.80;;;;;;5055228;28;20393;-65
2023/05/27 01:29:12;;;;;;;8.48;4.85;;;18.60;75.20;;;;;;5055559;28;20104;-63
2023/05/27 01:32:11;;;;;;;7.70;4.18;;;18.60;74.90;;;;;;5056083;28;20086;-64
2023/05/27 01:34:58;;;;;;;5.25;3.72;;;18.60;74.80;;;;;;5055080;28;20029;-66
2023/05/27 01:37:27;;;;;;;6.15;3.90;;;18.60;74.60;;;;;;5055743;28;20102;-63
2023/05/27 01:39:54;;;;;;;5.22;3.50;;;18.60;74.60;;;;;;5055964;28;20117;-63
2023/05/27 01:42:20;;;;;;;5.32;3.80;;;18.60;74.30;;;;;;5055676;28;20057;-63
2023/05/27 01:44:47;;;;;;;6.00;3.72;;;18.70;74.60;;;;;;5055554;28;20021;-65
2023/05/27 01:47:13;;;;;;;5.95;3.80;;;18.70;74.60;;;;;;5055818;28;20037;-66
2023/05/27 01:49:39;;;;;;;6.25;4.00;;;18.70;74.40;;;;;;5055591;28;20453;-66
2023/05/27 01:52:05;;;;;;;6.47;4.13;;;18.70;74.80;;;;;;5055281;28;20500;-62
2023/05/27 01:54:31;;;;;;;6.30;3.58;;;18.70;74.90;;;;;;5055178;28;20040;-62
2023/05/27 01:56:57;;;;;;;5.57;3.70;;;18.70;74.50;;;;;;5055102;28;20025;-62
2023/05/27 01:59:23;;;;;;;7.38;4.13;;;18.70;74.30;;;;;;5055199;28;20332;-65
2023/05/27 02:01:49;;;;;;;6.63;3.90;;;18.70;74.10;;;;;;5055159;28;20120;-67
2023/05/27 02:04:15;;;;;;;4.50;3.50;;;18.70;74.10;;;;;;5055384;28;20040;-66
2023/05/27 02:06:41;;;;;;;5.20;3.60;;;18.70;74.10;;;;;;5054967;28;20029;-64
2023/05/27 02:09:07;;;;;;;4.85;3.30;;;18.70;74.20;;;;;;5055337;28;20031;-66
2023/05/27 02:11:33;;;;;;;6.32;3.53;;;18.80;74.20;;;;;;5055019;28;20028;-66
2023/05/27 02:14:02;;;;;;;6.82;4.15;;;18.70;74.00;;;;;;5055083;28;20090;-66
2023/05/27 02:16:30;;;;;;;6.28;3.72;;;18.80;73.90;;;;;;5054989;28;20381;-67
2023/05/27 02:18:56;;;;;;;5.88;3.58;;;18.80;74.10;;;;;;5055222;28;20036;-66
2023/05/27 02:21:22;;;;;;;5.47;3.80;;;18.80;74.20;;;;;;5055191;28;20017;-66
2023/05/27 02:23:48;;;;;;;6.05;4.00;;;18.80;74.40;;;;;;5054945;28;20025;-68
2023/05/27 02:26:14;;;;;;;5.93;3.70;;;18.80;74.00;;;;;;5054634;28;20095;-66
2023/05/27 02:28:40;;;;;;;7.72;3.45;;;18.70;73.90;;;;;;5055357;28;20351;-63
2023/05/27 02:31:06;;;;;;;5.18;3.20;;;18.70;73.90;;;;;;5054892;28;20446;-63
2023/05/27 02:33:32;;;;;;;5.90;3.45;;;18.80;73.60;;;;;;5054856;28;20103;-64
2023/05/27 02:35:57;;;;;;;5.20;3.35;;;18.70;73.60;;;;;;5057715;28;20504;-63
2023/05/27 02:38:23;;;;;;;6.20;3.38;;;18.70;73.40;;;;;;5059304;28;20195;-67
2023/05/27 02:40:49;;;;;;;4.80;3.10;;;18.70;73.30;;;;;;5058822;28;20059;-66
2023/05/27 02:43:16;;;;;;;3.50;2.67;;;18.70;73.20;;;;;;5058806;28;20025;-66
2023/05/27 02:45:42;;;;;;;5.60;2.80;;;18.60;73.10;;;;;;5058830;28;20028;-67
2023/05/27 02:48:08;;;;;;;5.53;3.03;;;18.70;73.10;;;;;;5058897;28;20039;-64
2023/05/27 02:50:34;;;;;;;4.78;3.03;;;18.70;73.10;;;;;;5058879;28;20033;-66
2023/05/27 02:53:00;;;;;;;4.05;3.03;;;18.70;73.00;;;;;;5058582;28;20104;-67
2023/05/27 02:55:26;;;;;;;3.38;2.70;;;18.70;73.00;;;;;;5059016;28;20139;-62
2023/05/27 02:57:52;;;;;;;4.63;3.00;;;18.70;72.90;;;;;;5058452;28;20033;-62
2023/05/27 03:00:18;;;;;;;3.35;2.60;;;18.70;73.00;;;;;;5058990;28;20029;-66
2023/05/27 03:02:44;;;;;;;5.15;2.92;;;18.70;73.10;;;;;;5058947;28;20029;-65
2023/05/27 03:05:10;;;;;;;3.20;2.58;;;18.70;73.10;;;;;;5058606;28;20025;-66
2023/05/27 03:07:36;;;;;;;4.40;2.60;;;18.70;73.20;;;;;;5058220;28;20036;-63
2023/05/27 03:10:02;;;;;;;3.63;2.70;;;18.70;73.30;;;;;;5058243;28;20025;-66
2023/05/27 03:12:28;;;;;;;3.80;2.55;;;18.70;73.30;;;;;;5058511;28;20096;-66
2023/05/27 03:14:54;;;;;;;4.50;2.70;;;18.70;73.40;;;;;;5058359;28;20063;-66
2023/05/27 03:17:20;;;;;;;4.68;3.20;;;18.70;73.50;;;;;;5058413;28;20021;-63
2023/05/27 03:19:46;;;;;;;5.40;3.35;;;18.70;73.50;;;;;;5058121;28;20082;-65
2023/05/27 03:22:12;;;;;;;5.05;3.40;;;18.60;73.60;;;;;;5058578;28;20025;-66
2023/05/27 03:24:38;;;;;;;10.50;3.60;;;18.70;73.60;;;;;;5058251;28;20430;-67
2023/05/27 03:27:04;;;;;;;6.38;3.30;;;18.60;73.70;;;;;;5057497;28;20060;-66
2023/05/27 03:29:30;;;;;;;7.80;4.13;;;18.60;73.60;;;;;;5058133;28;20021;-65
2023/05/27 03:31:56;;;;;;;8.95;4.18;;;18.60;73.70;;;;;;5057771;28;20033;-67
2023/05/27 03:34:23;;;;;;;5.53;4.05;;;18.60;74.10;;;;;;5057838;28;20025;-67
2023/05/27 03:36:50;;;;;;;7.05;4.30;;;18.60;74.10;;;;;;5057952;28;20033;-63
2023/05/27 03:39:17;;;;;;;5.30;3.75;;;18.60;74.10;;;;;;5057954;28;20031;-66
2023/05/27 03:41:43;;;;;;;7.30;4.07;;;18.60;74.10;;;;;;5058203;28;20025;-63
2023/05/27 03:44:09;;;;;;;6.47;4.55;;;18.60;74.30;;;;;;5057633;28;20032;-65
2023/05/27 03:46:35;;;;;;;7.35;4.30;;;18.60;74.40;;;;;;5056637;28;20025;-67
2023/05/27 03:49:02;;;;;;;6.82;4.53;;;18.60;74.60;;;;;;5057477;28;20017;-63
2023/05/27 03:51:28;;;;;;;7.18;4.40;;;18.60;74.70;;;;;;5057469;28;20029;-66
2023/05/27 03:53:54;;;;;;;8.00;4.40;;;18.60;74.70;;;;;;5057493;28;20470;-67
2023/05/27 03:56:20;;;;;;;6.65;4.13;;;18.70;74.70;;;;;;5057607;28;20032;-66
2023/05/27 03:58:46;;;;;;;7.07;4.70;;;18.70;74.80;;;;;;5057645;28;20021;-63
2023/05/27 04:01:12;;;;;;;7.57;4.72;;;18.70;74.90;;;;;;5057564;28;20052;-65
2023/05/27 04:03:39;;;;;;;7.68;4.50;;;18.70;75.00;;;;;;5057520;28;20446;-62
2023/05/27 04:06:06;;;;;;;10.88;4.80;;;18.70;75.00;;;;;;5057101;28;20360;-67
2023/05/27 04:08:32;;;;;;;8.45;4.97;;;18.80;75.10;;;;;;5057092;28;20029;-66
2023/05/27 04:10:58;;;;;;;9.73;4.88;;;18.80;75.10;;;;;;5057140;28;20048;-63
2023/05/27 04:13:23;;;;;;;7.60;4.70;;;18.80;74.90;;;;;;5057083;28;20083;-65
2023/05/27 04:15:49;;;;;;;9.15;6.03;;;18.80;75.00;;;;;;5057276;28;20021;-67
2023/05/27 04:18:15;;;;;;;8.90;5.57;;;18.80;75.00;;;;;;5057023;28;20017;-67
2023/05/27 04:20:42;;;;;;;9.85;6.43;;;18.80;74.90;;;;;;5057148;28;20036;-67
2023/05/27 04:23:10;;;;;;;11.48;6.20;;;18.90;75.00;;;;;;5057153;28;20103;-62
2023/05/27 04:25:36;;;;;;;8.43;5.70;;;18.90;74.90;;;;;;5056743;28;20025;-65
2023/05/27 04:28:04;;;;;;;9.38;6.00;;;18.90;75.00;;;;;;5055621;28;20064;-66
2023/05/27 04:30:33;;;;;;;9.10;5.50;;;18.90;74.90;;;;;;5057042;28;20430;-63
2023/05/27 04:33:00;;;;;;;10.27;5.65;;;18.90;74.90;;;;;;5056927;28;20185;-65
2023/05/27 04:35:26;;;;;;;9.80;6.18;;;18.90;74.80;;;;;;5056869;28;20039;-63
2023/05/27 04:37:52;;;;;;;8.82;5.93;;;18.90;74.80;;;;;;5055627;28;20025;-62
2023/05/27 04:40:19;;;;;;;8.43;5.40;;;19.00;74.70;;;;;;5056830;28;20028;-62
2023/05/27 04:42:45;;;;;;;10.60;6.45;;;19.00;74.70;;;;;;5056785;28;20048;-63
2023/05/27 04:45:12;;;;;;;9.00;5.55;;;19.00;74.70;;;;;;5056890;28;20096;-67
2023/05/27 04:47:40;;;;;;;10.27;6.13;;;19.10;74.40;;;;;;5056644;28;20033;-63
2023/05/27 04:50:08;;;;;;;9.25;5.57;;;19.10;74.50;;;;;;5055454;28;20035;-65
2023/05/27 04:52:41;;;;;;;10.20;5.88;;;19.20;74.40;;;;;;5056369;28;20062;-64
2023/05/27 04:55:09;;;;;;;9.85;6.00;;;19.20;74.40;;;;;;5056248;28;20039;-63
2023/05/27 04:57:36;;;;;;;9.80;5.80;;;19.30;74.30;;;;;;5056380;28;20029;-64
2023/05/27 05:02:34;;;;;;;9.75;6.80;;;19.50;74.10;;;;;;5056978;28;20029;-67
2023/05/27 05:05:10;;;;;;;10.82;7.80;;;19.70;74.20;;;;;;5056512;28;20071;-64
2023/05/27 05:07:40;;;;;;;12.88;9.68;;;19.90;74.00;;;;;;5056247;28;20017;-67
2023/05/27 05:10:11;;;;;;;13.73;9.27;;;20.10;73.80;;;;;;5055981;28;20104;-63
2023/05/27 05:12:37;;;;;;;12.05;8.32;;;20.30;73.30;;;;;;5056179;28;20036;-63
2023/05/27 05:15:04;;;;;;;11.98;7.22;;;20.50;73.00;;;;;;5056318;28;20021;-63
2023/05/27 05:17:30;;;;;;;11.90;6.90;;;20.90;72.90;;;;;;5056122;28;20051;-67
2023/05/27 05:19:56;;;;;;;13.52;6.72;;;21.10;72.10;;;;;;5055775;28;20035;-67
2023/05/27 05:22:23;;;;;;;10.68;6.90;;;21.20;71.40;;;;;;5056240;28;20017;-65
2023/05/27 05:24:49;;;;;;;10.30;7.40;;;21.20;71.00;;;;;;5055894;28;20025;-62
2023/05/27 05:27:16;;;;;;;10.18;6.57;;;21.20;70.90;;;;;;5055330;28;20092;-67
2023/05/27 05:29:42;;;;;;;10.90;6.93;;;21.00;70.70;;;;;;5055893;28;20025;-64
2023/05/27 05:32:11;;;;;;;13.07;8.45;;;21.10;70.70;;;;;;5055486;28;20071;-65
2023/05/27 05:34:38;;;;;;;14.23;9.52;;;21.00;70.70;;;;;;5055470;28;20029;-67
2023/05/27 05:37:04;;;;;;;14.13;8.88;;;21.10;70.60;;;;;;5055433;28;20032;-66
2023/05/27 05:39:31;;;;;;;12.70;8.90;;;21.10;70.60;;;;;;5055407;28;20066;-67
2023/05/27 05:41:57;;;;;;;12.68;8.32;;;21.20;70.70;;;;;;5055947;28;20040;-63
2023/05/27 05:44:24;;;;;;;9.88;7.07;;;21.30;70.40;;;;;;5055646;28;20041;-66
2023/05/27 05:46:50;;;;;;;10.98;7.55;;;21.40;70.20;;;;;;5055562;28;20116;-68
2023/05/27 05:49:17;;;;;;;12.18;7.60;;;21.40;70.10;;;;;;5055289;28;20060;-66
2023/05/27 05:51:43;;;;;;;15.95;10.05;;;21.50;70.00;;;;;;5055569;28;20028;-67
2023/05/27 05:54:09;;;;;;;14.13;10.25;;;21.50;69.90;;;;;;5055233;28;20438;-63
2023/05/27 05:56:35;;;;;;;14.05;9.60;;;21.60;69.70;;;;;;5055640;28;20350;-63
2023/05/27 05:59:01;;;;;;;14.10;10.50;;;21.70;69.60;;;;;;5055332;28;20040;-64
2023/05/27 06:01:27;;;;;;;12.93;10.32;;;21.90;69.40;;;;;;5055333;28;20489;-63
2023/05/27 06:03:54;;;;;;;17.52;11.60;;;22.10;69.10;;;;;;5054131;28;20450;-63
2023/05/27 06:06:19;;;;;;;15.27;9.80;;;22.40;68.70;;;;;;5055310;28;20056;-64
2023/05/27 06:08:45;;;;;;;16.00;9.95;;;22.70;68.30;;;;;;5054947;28;20053;-64
2023/05/27 06:11:11;;;;;;;11.75;8.30;;;23.30;67.80;;;;;;5054632;28;20439;-65
2023/05/27 06:13:38;;;;;;;13.55;8.50;;;23.80;67.10;;;;;;5055310;28;20013;-67
2023/05/27 06:16:04;;;;;;;13.50;8.63;;;24.20;66.00;;;;;;5055151;28;20109;-64
2023/05/27 06:18:30;;;;;;;11.48;7.63;;;24.90;65.00;;;;;;5055210;28;20032;-65
2023/05/27 06:20:56;;;;;;;11.45;7.80;;;26.20;63.60;;;;;;5055222;28;20033;-63
2023/05/27 06:23:22;;;;;;;12.50;7.50;;;27.60;61.00;;;;;;5055443;28;20029;-63
2023/05/27 06:25:48;;;;;;;9.20;6.70;;;28.60;58.30;;;;;;5054698;28;20469;-64
2023/05/27 06:28:14;;;;;;;9.57;6.70;;;28.80;56.50;;;;;;5054803;28;20032;-63
2023/05/27 06:30:41;;;;;;;10.85;7.30;;;29.00;55.50;;;;;;5053882;28;20425;-64
2023/05/27 06:33:07;;;;;;;9.98;6.35;;;29.80;54.40;;;;;;5054815;28;20033;-66
2023/05/27 06:35:33;;;;;;;8.90;6.07;;;31.20;51.70;;;;;;5055244;28;20103;-67
2023/05/27 06:37:59;;;;;;;8.57;5.68;;;32.50;48.30;;;;;;5055295;28;20025;-63
2023/05/27 06:40:25;;;;;;;10.02;5.78;;;33.50;45.70;;;;;;5054805;28;20036;-65
2023/05/27 06:42:51;;;;;;;8.27;5.53;;;34.20;44.00;;;;;;5054780;28;20032;-64
2023/05/27 06:45:17;;;;;;;8.32;5.95;;;34.30;43.40;;;;;;5054936;28;20021;-66
2023/05/27 06:47:43;;;;;;;8.30;5.30;;;34.00;43.20;;;;;;5054687;28;20021;-63
2023/05/27 06:50:09;;;;;;;8.82;5.93;;;33.50;43.20;;;;;;5054960;28;20118;-67
2023/05/27 06:52:35;;;;;;;8.60;5.65;;;32.80;43.60;;;;;;5053764;28;20021;-64
2023/05/27 06:55:01;;;;;;;7.85;5.13;;;32.20;44.50;;;;;;5054533;28;20048;-67
2023/05/27 06:57:27;;;;;;;7.13;4.78;;;31.60;45.20;;;;;;5054924;28;20039;-63
2023/05/27 06:59:53;;;;;;;9.15;4.82;;;31.10;45.50;;;;;;5054650;28;20322;-67
2023/05/27 07:02:19;;;;;;;7.28;5.00;;;30.70;45.90;;;;;;5054557;28;20021;-63
2023/05/27 07:04:45;;;;;;;7.85;5.20;;;30.30;45.50;;;;;;5054606;28;20051;-67
2023/05/27 07:07:11;;;;;;;7.35;5.05;;;29.90;45.70;;;;;;5054512;28;20104;-63
2023/05/27 07:09:37;;;;;;;8.07;5.20;;;29.60;46.20;;;;;;5054554;28;20021;-67
2023/05/27 07:12:03;;;;;;;7.25;5.20;;;29.50;46.60;;;;;;5054515;28;20025;-63
2023/05/27 07:14:29;;;;;;;6.80;5.28;;;29.40;46.60;;;;;;5054495;28;20096;-63
2023/05/27 07:16:55;;;;;;;8.80;5.35;;;29.40;46.90;;;;;;5054409;28;20099;-68
2023/05/27 07:19:22;;;;;;;8.15;5.45;;;29.30;46.40;;;;;;5054494;28;20036;-67
2023/05/27 07:21:48;;;;;;;8.48;5.35;;;29.20;46.40;;;;;;5055626;28;20024;-63
2023/05/27 07:24:14;;;;;;;8.82;5.10;;;29.10;46.60;;;;;;5058099;28;20036;-68
2023/05/27 07:26:40;;;;;;;7.97;5.55;;;29.20;46.70;;;;;;5057856;28;20117;-69
2023/05/27 07:29:06;;;;;;;7.50;4.90;;;29.20;47.00;;;;;;5057860;28;20167;-68
2023/05/27 07:31:32;;;;;;;9.25;5.13;;;29.30;47.00;;;;;;5058454;28;20338;-64
2023/05/27 07:33:58;;;;;;;7.63;4.90;;;29.30;47.10;;;;;;5057811;28;20043;-68
2023/05/27 07:36:24;;;;;;;10.85;6.38;;;29.40;47.00;;;;;;5058311;28;20092;-62
2023/05/27 07:38:50;;;;;;;8.27;5.35;;;29.50;46.80;;;;;;5058282;28;20411;-63
2023/05/27 07:41:16;;;;;;;8.27;5.30;;;29.50;46.70;;;;;;5057685;28;20033;-63
2023/05/27 07:43:42;;;;;;;9.50;5.70;;;29.60;46.50;;;;;;5057953;28;20032;-68
2023/05/27 07:46:08;;;;;;;12.77;5.50;;;29.60;45.90;;;;;;5057582;28;20025;-63
2023/05/27 07:48:34;;;;;;;7.68;5.13;;;29.60;46.20;;;;;;5056922;28;20035;-63
2023/05/27 07:51:00;;;;;;;8.70;5.40;;;29.70;46.10;;;;;;5057838;28;20100;-68
2023/05/27 07:53:25;;;;;;;7.88;5.30;;;29.80;46.20;;;;;;5057504;28;20353;-63
2023/05/27 07:55:51;;;;;;;8.02;5.60;;;29.80;45.90;;;;;;5057513;28;20067;-68
2023/05/27 07:58:17;;;;;;;7.95;5.22;;;29.90;45.70;;;;;;5057956;28;20032;-63
2023/05/27 08:00:43;;;;;;;8.18;5.40;;;29.80;45.60;;;;;;5057628;28;20082;-68
2023/05/27 08:03:09;;;;;;;7.80;5.40;;;29.80;45.70;;;;;;5057833;28;20064;-63
2023/05/27 08:05:35;;;;;;;8.50;5.60;;;29.80;46.00;;;;;;5057448;28;20442;-63
2023/05/27 08:08:01;;;;;;;7.57;5.40;;;29.90;45.90;;;;;;5057393;28;20051;-63
2023/05/27 08:10:27;;;;;;;7.75;5.47;;;29.90;45.60;;;;;;5057160;28;20343;-64
2023/05/27 08:12:52;;;;;;;8.50;5.32;;;30.00;45.60;;;;;;5057415;28;20017;-67
2023/05/27 08:15:18;;;;;;;7.57;5.30;;;30.00;45.40;;;;;;5057024;28;20090;-68
2023/05/27 08:17:44;;;;;;;7.88;4.78;;;30.10;45.20;;;;;;5057277;28;20434;-63
2023/05/27 08:20:11;;;;;;;8.07;5.25;;;30.10;45.40;;;;;;5057241;28;20032;-63
2023/05/27 08:22:37;;;;;;;8.77;5.13;;;30.20;45.50;;;;;;5057230;28;20025;-63
2023/05/27 08:25:03;;;;;;;8.13;5.53;;;30.30;45.40;;;;;;5057254;28;20358;-65
2023/05/27 08:27:51;;;;;;;7.35;5.30;;;30.20;44.80;;;;;;5056762;28;20056;-63
2023/05/27 08:30:18;;;;;;;7.75;5.10;;;30.20;43.60;;;;;;5055819;28;20106;-63
2023/05/27 08:32:44;;;;;;;7.60;5.20;;;30.20;44.80;;;;;;5056385;28;20035;-68
2023/05/27 08:35:11;;;;;;;7.25;5.32;;;30.20;44.70;;;;;;5057296;28;20093;-63
2023/05/27 08:37:37;;;;;;;8.60;5.57;;;30.20;44.40;;;;;;5056941;28;20029;-63
2023/05/27 08:40:07;;;;;;;7.68;5.40;;;30.20;44.50;;;;;;5057127;28;20021;-66
2023/05/27 08:42:36;;;;;;;9.13;5.55;;;30.20;44.50;;;;;;5056550;28;20029;-63
2023/05/27 08:45:03;;;;;;;7.05;5.00;;;30.20;44.40;;;;;;5056971;28;20048;-66
2023/05/27 08:47:30;;;;;;;8.10;5.40;;;30.00;44.10;;;;;;5038878;28;20040;-63
2023/05/27 08:49:58;;;;;;;8.25;5.72;;;29.90;44.30;;;;;;5056354;28;20048;-68
2023/05/27 08:52:26;;;;;;;8.40;6.15;;;29.90;44.40;;;;;;5056343;28;20028;-63
2023/05/27 08:54:54;;;;;;;9.70;5.45;;;29.90;44.50;;;;;;5056500;28;20076;-64
2023/05/27 08:57:24;;;;;;;6.45;5.00;;;29.90;44.60;;;;;;5055309;28;20032;-63
2023/05/27 08:59:52;;;;;;;8.73;5.53;;;30.00;44.40;;;;;;5056825;28;20033;-68
2023/05/27 09:02:21;;;;;;;8.10;5.70;;;29.90;43.70;;;;;;5056200;28;20025;-66
2023/05/27 09:04:47;;;;;;;8.95;5.53;;;29.80;43.70;;;;;;5055994;28;20442;-68
2023/05/27 09:07:13;;;;;;;9.85;5.93;;;29.70;43.90;;;;;;5056016;28;20025;-63
2023/05/27 09:09:39;;;;;;;7.30;5.20;;;29.70;44.20;;;;;;5056021;28;20021;-63
2023/05/27 09:12:08;;;;;;;9.25;6.28;;;29.70;44.20;;;;;;5055984;28;20029;-67
2023/05/27 09:14:37;;;;;;;9.05;5.88;;;29.70;44.10;;;;;;5055861;28;20025;-68
2023/05/27 09:17:07;;;;;;;9.60;6.22;;;29.70;44.00;;;;;;5055787;28;20454;-68
2023/05/27 09:19:33;;;;;;;7.80;5.72;;;29.70;43.70;;;;;;5055902;28;20071;-69
2023/05/27 09:21:59;;;;;;;9.35;6.10;;;29.70;44.00;;;;;;5055852;28;20389;-63
2023/05/27 09:24:27;;;;;;;7.82;5.90;;;29.80;44.20;;;;;;5050328;28;20092;-67
2023/05/27 09:26:55;;;;;;;9.40;6.20;;;29.80;44.20;;;;;;5054137;28;20059;-68
2023/05/27 09:29:26;;;;;;;9.10;5.38;;;29.90;44.30;;;;;;5054683;28;20439;-66
2023/05/27 09:31:55;;;;;;;10.30;6.35;;;29.90;44.30;;;;;;5055855;28;20035;-65
2023/05/27 09:34:21;;;;;;;9.35;5.93;;;29.90;44.00;;;;;;5055131;28;20025;-64
2023/05/27 09:36:49;;;;;;;9.52;6.40;;;29.90;43.90;;;;;;5054509;28;20029;-64
2023/05/27 09:39:17;;;;;;;8.80;6.53;;;30.00;43.80;;;;;;5055536;28;20025;-63
2023/05/27 09:41:43;;;;;;;8.40;5.53;;;30.00;43.90;;;;;;5071282;28;20124;-64
2023/05/27 09:44:09;;;;;;;8.88;5.65;;;30.10;44.10;;;;;;5054994;28;20024;-63
2023/05/27 09:46:36;;;;;;;9.73;6.38;;;30.10;44.30;;;;;;5055237;28;20110;-64
2023/05/27 09:49:05;;;;;;;7.55;5.50;;;30.20;44.10;;;;;;5071570;28;20029;-63
2023/05/27 09:51:32;;;;;;;9.82;6.25;;;30.20;44.30;;;;;;5055852;28;20032;-63
2023/05/27 09:53:58;;;;;;;10.05;6.22;;;30.10;44.60;;;;;;5055298;28;20096;-64
2023/05/27 09:56:26;;;;;;;10.18;6.78;;;30.20;44.70;;;;;;5055734;28;20035;-63
2023/05/27 09:58:56;;;;;;;10.05;7.53;;;30.20;44.50;;;;;;5055229;28;20032;-64
2023/05/27 10:01:28;;;;;;;9.35;5.88;;;30.20;43.90;;;;;;5055222;28;20053;-64
2023/05/27 10:03:58;;;;;;;9.85;6.80;;;30.10;44.30;;;;;;5055482;28;20056;-63
2023/05/27 10:06:24;;;;;;;9.60;6.45;;;30.20;44.50;;;;;;5055040;28;20036;-64
2023/05/27 10:08:53;;;;;;;9.07;6.38;;;30.20;44.50;;;;;;5054997;28;20104;-64
2023/05/27 10:11:19;;;;;;;9.23;5.97;;;30.20;44.70;;;;;;5055611;28;20031;-64
2023/05/27 10:13:46;;;;;;;9.60;6.45;;;30.20;44.90;;;;;;5055324;28;20021;-65
2023/05/27 10:16:27;;;;;;;10.63;6.53;;;30.30;44.50;;;;;;5055165;28;20052;-64
2023/05/27 10:18:57;;;;;;;11.23;7.10;;;30.30;43.60;;;;;;5055051;28;20442;-63
2023/05/27 10:21:33;;;;;;;9.60;6.68;;;30.30;44.00;;;;;;5055036;28;20071;-64
2023/05/27 10:24:00;;;;;;;12.65;7.30;;;30.20;43.80;;;;;;5055273;28;20029;-64
2023/05/27 10:26:38;;;;;;;8.70;6.18;;;30.20;44.10;;;;;;5054867;28;20071;-63
2023/05/27 10:29:11;;;;;;;8.18;6.00;;;30.00;44.00;;;;;;5053939;28;20504;-64
2023/05/27 10:31:50;;;;;;;9.00;5.80;;;30.00;44.40;;;;;;5055112;28;20029;-64
2023/05/27 10:34:17;;;;;;;7.40;5.50;;;30.00;44.20;;;;;;5055124;28;20017;-63
2023/05/27 10:36:46;;;;;;;8.43;5.45;;;30.10;44.50;;;;;;5053774;28;20032;-64
2023/05/27 10:39:18;;;;;;;8.88;6.28;;;30.10;44.40;;;;;;5054842;28;20517;-63
2023/05/27 10:41:44;;;;;;;9.27;6.10;;;30.10;44.40;;;;;;5055402;28;20047;-65
2023/05/27 10:44:10;;;;;;;8.50;5.53;;;30.10;44.40;;;;;;5054800;28;20025;-63
2023/05/27 10:46:44;;;;;;;8.50;5.63;;;30.10;44.00;;;;;;5054720;28;20086;-63
2023/05/27 10:49:15;;;;;;;8.60;5.82;;;30.10;43.80;;;;;;5054659;28;20029;-64
2023/05/27 10:51:43;;;;;;;8.75;6.00;;;30.10;44.00;;;;;;5055005;28;20120;-64
2023/05/27 10:54:09;;;;;;;8.82;6.05;;;30.00;43.90;;;;;;5054973;28;20021;-64
2023/05/27 10:56:35;;;;;;;8.18;5.47;;;30.10;43.50;;;;;;5056760;28;20074;-63
2023/05/27 10:59:04;;;;;;;8.40;6.20;;;30.00;43.30;;;;;;5058805;28;20044;-64
2023/05/27 11:01:33;;;;;;;9.85;5.53;;;29.90;43.40;;;;;;5058462;28;20040;-64
2023/05/27 11:03:59;;;;;;;9.55;5.82;;;29.90;43.70;;;;;;5058376;28;20021;-64
2023/05/27 11:06:25;;;;;;;9.35;6.32;;;29.80;43.70;;;;;;5058616;28;20128;-63
2023/05/27 11:08:51;;;;;;;10.25;6.13;;;29.70;43.50;;;;;;5058490;28;20036;-63
2023/05/27 11:11:17;;;;;;;8.65;5.35;;;29.60;43.60;;;;;;5058323;28;20025;-63
2023/05/27 11:13:45;;;;;;;8.50;5.90;;;29.50;43.70;;;;;;5058241;28;20031;-64
2023/05/27 11:16:12;;;;;;;9.55;6.15;;;29.40;44.00;;;;;;5058243;28;20024;-63
2023/05/27 11:18:41;;;;;;;9.05;6.20;;;29.50;44.10;;;;;;5058385;28;20029;-63
2023/05/27 11:21:08;;;;;;;9.32;6.30;;;29.50;44.10;;;;;;5058392;28;20029;-62
2023/05/27 11:23:45;;;;;;;8.95;6.50;;;29.40;44.00;;;;;;5058346;28;20072;-63
2023/05/27 11:26:22;;;;;;;8.70;5.47;;;29.50;43.90;;;;;;5057672;28;20470;-64
2023/05/27 11:28:57;;;;;;;8.13;5.55;;;29.50;44.00;;;;;;5057870;28;20117;-63
2023/05/27 11:31:31;;;;;;;9.38;5.57;;;29.50;43.50;;;;;;5057946;28;20031;-63
2023/05/27 11:33:57;;;;;;;9.63;6.47;;;29.40;43.70;;;;;;5058124;28;20035;-63
2023/05/27 11:36:27;;;;;;;8.63;5.60;;;29.40;43.90;;;;;;5057834;28;20415;-63
2023/05/27 11:38:54;;;;;;;8.68;6.07;;;29.40;44.00;;;;;;5058034;28;20403;-63
2023/05/27 11:41:23;;;;;;;8.00;5.57;;;29.40;44.20;;;;;;5056740;28;20032;-63
2023/05/27 11:43:50;;;;;;;9.32;5.80;;;29.50;44.00;;;;;;5057702;28;20450;-63
2023/05/27 11:46:17;;;;;;;10.77;6.32;;;29.50;43.90;;;;;;5073252;28;20054;-63
2023/05/27 11:48:43;;;;;;;8.25;5.80;;;29.50;43.70;;;;;;5058049;28;20025;-63
2023/05/27 11:51:10;;;;;;;8.23;5.90;;;29.40;43.50;;;;;;5057589;28;20087;-63
2023/05/27 11:53:41;;;;;;;9.02;6.10;;;29.40;43.50;;;;;;5073434;28;20021;-63
2023/05/27 11:56:07;;;;;;;9.60;6.50;;;29.30;43.60;;;;;;5057617;28;20090;-63
2023/05/27 11:58:33;;;;;;;9.40;5.90;;;29.30;43.80;;;;;;5057368;28;20029;-63
2023/05/27 12:01:00;;;;;;;9.02;6.30;;;29.20;44.00;;;;;;5056369;28;20068;-64
2023/05/27 12:03:26;;;;;;;9.68;5.40;;;29.10;44.20;;;;;;5057240;28;20060;-63
2023/05/27 12:05:52;;;;;;;8.35;5.63;;;29.20;44.40;;;;;;5057499;28;20051;-63
2023/05/27 12:08:18;;;;;;;8.07;5.80;;;29.30;44.20;;;;;;5056907;28;20418;-63
2023/05/27 12:10:44;;;;;;;8.75;5.68;;;29.30;44.20;;;;;;5057773;28;20036;-65
2023/05/27 12:13:10;;;;;;;9.07;5.65;;;29.40;44.10;;;;;;5057404;28;20078;-64
2023/05/27 12:15:36;;;;;;;9.38;6.38;;;29.50;44.10;;;;;;5057336;28;20112;-64
2023/05/27 12:18:02;;;;;;;8.20;5.80;;;29.60;44.00;;;;;;5057595;28;20025;-63
2023/05/27 12:20:28;;;;;;;8.95;6.25;;;29.70;43.80;;;;;;5057011;28;20354;-63
2023/05/27 12:22:55;;;;;;;9.88;6.03;;;29.70;43.60;;;;;;5057238;28;20060;-64
2023/05/27 12:25:21;;;;;;;9.32;6.75;;;29.60;43.00;;;;;;5057401;28;20048;-64
2023/05/27 12:27:47;;;;;;;7.68;5.65;;;29.50;42.60;;;;;;5056615;28;20126;-64
2023/05/27 12:30:13;;;;;;;8.95;6.10;;;29.40;42.90;;;;;;5055867;28;20025;-63
2023/05/27 12:32:39;;;;;;;10.90;6.00;;;29.20;43.20;;;;;;5057052;28;20036;-63
2023/05/27 12:35:05;;;;;;;6.90;5.47;;;29.40;43.20;;;;;;5056251;28;20457;-64
2023/05/27 12:37:31;;;;;;;9.55;5.60;;;29.40;43.50;;;;;;5056421;28;20025;-64
2023/05/27 12:39:57;;;;;;;8.30;5.53;;;29.50;43.50;;;;;;5055875;28;20028;-63
2023/05/27 12:42:23;;;;;;;6.68;4.68;;;29.60;43.40;;;;;;5056527;28;20036;-64
2023/05/27 12:44:49;;;;;;;7.68;5.25;;;29.70;43.20;;;;;;5056683;28;20048;-63
2023/05/27 12:47:15;;;;;;;9.93;6.03;;;29.80;43.20;;;;;;5056224;28;20462;-63